sensor_id;sensor_type;location;lat;lon;timestamp;P1;durP1;ratioP1;P2;durP2;ratioP2
1885;SDS011;943;51.568;6.998;2022-08-21T00:02:01;7.53;;;5.00;;
1885;SDS011;943;51.568;6.998;2022-08-21T00:04:30;8.23;;;5.00;;
1885;SDS011;943;51.568;6.998;2022-08-21T00:06:57;9.67;;;4.50;;
1885;SDS011;943;51.568;6.998;2022-08-21T00:09:25;8.20;;;5.23;;
1885;SDS011;943;51.568;6.998;2022-08-21T00:11:53;10.63;;;4.87;;
1885;SDS011;943;51.568;6.998;2022-08-21T00:14:21;7.90;;;4.53;;
1885;SDS011;943;51.568;6.998;2022-08-21T00:16:49;9.97;;;6.17;;
1885;SDS011;943;51.568;6.998;2022-08-21T00:19:17;9.10;;;4.87;;
1885;SDS011;943;51.568;6.998;2022-08-21T00:21:46;11.53;;;5.80;;
1885;SDS011;943;51.568;6.998;2022-08-21T00:24:18;8.93;;;5.30;;
1885;SDS011;943;51.568;6.998;2022-08-21T00:26:48;8.27;;;5.57;;
1885;SDS011;943;51.568;6.998;2022-08-21T00:29:17;7.83;;;4.73;;
1885;SDS011;943;51.568;6.998;2022-08-21T00:31:46;14.93;;;6.90;;
1885;SDS011;943;51.568;6.998;2022-08-21T00:34:13;8.00;;;5.17;;
1885;SDS011;943;51.568;6.998;2022-08-21T00:36:41;12.73;;;5.43;;
1885;SDS011;943;51.568;6.998;2022-08-21T00:39:09;13.00;;;6.20;;
1885;SDS011;943;51.568;6.998;2022-08-21T00:41:37;12.67;;;6.43;;
1885;SDS011;943;51.568;6.998;2022-08-21T00:44:07;9.60;;;7.73;;
1885;SDS011;943;51.568;6.998;2022-08-21T00:46:41;10.53;;;6.70;;
1885;SDS011;943;51.568;6.998;2022-08-21T00:49:10;15.90;;;7.33;;
1885;SDS011;943;51.568;6.998;2022-08-21T00:51:44;11.40;;;6.57;;
1885;SDS011;943;51.568;6.998;2022-08-21T00:54:22;12.40;;;6.50;;
1885;SDS011;943;51.568;6.998;2022-08-21T00:56:57;14.57;;;6.60;;
1885;SDS011;943;51.568;6.998;2022-08-21T00:59:40;9.20;;;6.73;;
1885;SDS011;943;51.568;6.998;2022-08-21T01:02:16;13.60;;;6.40;;
1885;SDS011;943;51.568;6.998;2022-08-21T01:04:46;9.33;;;6.17;;
1885;SDS011;943;51.568;6.998;2022-08-21T01:07:15;13.57;;;6.47;;
1885;SDS011;943;51.568;6.998;2022-08-21T01:09:47;12.53;;;7.30;;
1885;SDS011;943;51.568;6.998;2022-08-21T01:12:16;12.10;;;5.87;;
1885;SDS011;943;51.568;6.998;2022-08-21T01:14:45;15.37;;;8.07;;
1885;SDS011;943;51.568;6.998;2022-08-21T01:17:14;13.30;;;6.30;;
1885;SDS011;943;51.568;6.998;2022-08-21T01:19:43;12.80;;;6.97;;
1885;SDS011;943;51.568;6.998;2022-08-21T01:22:11;9.83;;;6.33;;
1885;SDS011;943;51.568;6.998;2022-08-21T01:24:39;11.63;;;7.57;;
1885;SDS011;943;51.568;6.998;2022-08-21T01:27:07;13.70;;;6.07;;
1885;SDS011;943;51.568;6.998;2022-08-21T01:29:39;14.83;;;6.97;;
1885;SDS011;943;51.568;6.998;2022-08-21T01:32:41;11.77;;;6.17;;
1885;SDS011;943;51.568;6.998;2022-08-21T01:35:09;12.40;;;6.67;;
1885;SDS011;943;51.568;6.998;2022-08-21T01:37:39;13.73;;;7.17;;
1885;SDS011;943;51.568;6.998;2022-08-21T01:40:09;11.33;;;7.27;;
1885;SDS011;943;51.568;6.998;2022-08-21T01:42:43;12.37;;;7.33;;
1885;SDS011;943;51.568;6.998;2022-08-21T01:45:13;13.20;;;7.90;;
1885;SDS011;943;51.568;6.998;2022-08-21T01:47:42;17.67;;;9.70;;
1885;SDS011;943;51.568;6.998;2022-08-21T01:50:14;14.40;;;7.53;;
1885;SDS011;943;51.568;6.998;2022-08-21T01:52:46;8.13;;;6.70;;
1885;SDS011;943;51.568;6.998;2022-08-21T01:55:16;12.30;;;7.67;;
1885;SDS011;943;51.568;6.998;2022-08-21T01:57:46;12.73;;;7.20;;
1885;SDS011;943;51.568;6.998;2022-08-21T02:00:18;14.43;;;8.97;;
1885;SDS011;943;51.568;6.998;2022-08-21T02:02:49;8.03;;;6.90;;
1885;SDS011;943;51.568;6.998;2022-08-21T02:05:18;13.87;;;7.40;;
1885;SDS011;943;51.568;6.998;2022-08-21T02:07:49;10.63;;;7.30;;
1885;SDS011;943;51.568;6.998;2022-08-21T02:10:23;10.83;;;6.87;;
1885;SDS011;943;51.568;6.998;2022-08-21T02:12:58;11.33;;;7.20;;
1885;SDS011;943;51.568;6.998;2022-08-21T02:15:28;10.00;;;7.33;;
1885;SDS011;943;51.568;6.998;2022-08-21T02:17:59;12.93;;;7.60;;
1885;SDS011;943;51.568;6.998;2022-08-21T02:20:36;15.30;;;7.17;;
1885;SDS011;943;51.568;6.998;2022-08-21T02:23:12;12.70;;;8.13;;
1885;SDS011;943;51.568;6.998;2022-08-21T02:25:45;10.80;;;7.50;;
1885;SDS011;943;51.568;6.998;2022-08-21T02:28:13;15.87;;;8.67;;
1885;SDS011;943;51.568;6.998;2022-08-21T02:30:44;11.60;;;8.20;;
1885;SDS011;943;51.568;6.998;2022-08-21T02:33:15;12.27;;;7.57;;
1885;SDS011;943;51.568;6.998;2022-08-21T02:35:45;11.03;;;6.73;;
1885;SDS011;943;51.568;6.998;2022-08-21T02:38:17;10.97;;;7.40;;
1885;SDS011;943;51.568;6.998;2022-08-21T02:40:54;16.07;;;8.80;;
1885;SDS011;943;51.568;6.998;2022-08-21T02:43:24;12.57;;;8.50;;
1885;SDS011;943;51.568;6.998;2022-08-21T02:45:55;11.73;;;7.67;;
1885;SDS011;943;51.568;6.998;2022-08-21T02:48:26;10.53;;;7.10;;
1885;SDS011;943;51.568;6.998;2022-08-21T02:51:09;11.03;;;8.27;;
1885;SDS011;943;51.568;6.998;2022-08-21T02:53:44;15.30;;;7.80;;
1885;SDS011;943;51.568;6.998;2022-08-21T02:56:16;11.00;;;7.77;;
1885;SDS011;943;51.568;6.998;2022-08-21T02:58:49;10.93;;;7.87;;
1885;SDS011;943;51.568;6.998;2022-08-21T03:01:19;12.90;;;8.03;;
1885;SDS011;943;51.568;6.998;2022-08-21T03:03:48;11.77;;;7.40;;
1885;SDS011;943;51.568;6.998;2022-08-21T03:06:20;11.93;;;6.93;;
1885;SDS011;943;51.568;6.998;2022-08-21T03:08:50;11.07;;;8.27;;
1885;SDS011;943;51.568;6.998;2022-08-21T03:11:18;15.33;;;7.40;;
1885;SDS011;943;51.568;6.998;2022-08-21T03:13:47;12.73;;;7.17;;
1885;SDS011;943;51.568;6.998;2022-08-21T03:16:14;11.43;;;6.97;;
1885;SDS011;943;51.568;6.998;2022-08-21T03:18:42;12.20;;;7.20;;
1885;SDS011;943;51.568;6.998;2022-08-21T03:21:09;7.33;;;6.63;;
1885;SDS011;943;51.568;6.998;2022-08-21T03:23:39;11.97;;;6.70;;
1885;SDS011;943;51.568;6.998;2022-08-21T03:26:09;11.57;;;6.77;;
1885;SDS011;943;51.568;6.998;2022-08-21T03:28:39;9.20;;;6.97;;
1885;SDS011;943;51.568;6.998;2022-08-21T03:31:06;8.60;;;6.73;;
1885;SDS011;943;51.568;6.998;2022-08-21T03:33:35;9.90;;;7.60;;
1885;SDS011;943;51.568;6.998;2022-08-21T03:36:04;10.40;;;6.93;;
1885;SDS011;943;51.568;6.998;2022-08-21T03:38:36;9.17;;;6.53;;
1885;SDS011;943;51.568;6.998;2022-08-21T03:41:06;10.50;;;7.50;;
1885;SDS011;943;51.568;6.998;2022-08-21T03:43:35;10.97;;;7.60;;
1885;SDS011;943;51.568;6.998;2022-08-21T03:46:05;8.83;;;6.70;;
1885;SDS011;943;51.568;6.998;2022-08-21T03:48:34;13.47;;;7.23;;
1885;SDS011;943;51.568;6.998;2022-08-21T03:51:05;15.10;;;6.20;;
1885;SDS011;943;51.568;6.998;2022-08-21T03:53:33;10.53;;;7.03;;
1885;SDS011;943;51.568;6.998;2022-08-21T03:56:02;10.20;;;7.07;;
1885;SDS011;943;51.568;6.998;2022-08-21T03:58:32;12.93;;;7.70;;
1885;SDS011;943;51.568;6.998;2022-08-21T04:01:00;12.37;;;7.30;;
1885;SDS011;943;51.568;6.998;2022-08-21T04:03:33;12.60;;;7.60;;
1885;SDS011;943;51.568;6.998;2022-08-21T04:06:04;10.37;;;8.13;;
1885;SDS011;943;51.568;6.998;2022-08-21T04:08:33;11.70;;;7.70;;
1885;SDS011;943;51.568;6.998;2022-08-21T04:11:01;10.43;;;7.43;;
1885;SDS011;943;51.568;6.998;2022-08-21T04:13:31;8.10;;;7.30;;
1885;SDS011;943;51.568;6.998;2022-08-21T04:15:59;11.87;;;7.60;;
1885;SDS011;943;51.568;6.998;2022-08-21T04:18:26;10.77;;;8.00;;
1885;SDS011;943;51.568;6.998;2022-08-21T04:20:54;13.27;;;7.60;;
1885;SDS011;943;51.568;6.998;2022-08-21T04:23:27;16.23;;;8.00;;
1885;SDS011;943;51.568;6.998;2022-08-21T04:25:56;12.40;;;8.47;;
1885;SDS011;943;51.568;6.998;2022-08-21T04:28:25;13.30;;;8.50;;
1885;SDS011;943;51.568;6.998;2022-08-21T04:30:56;11.83;;;8.00;;
1885;SDS011;943;51.568;6.998;2022-08-21T04:33:24;14.43;;;8.00;;
1885;SDS011;943;51.568;6.998;2022-08-21T04:35:52;11.77;;;8.00;;
1885;SDS011;943;51.568;6.998;2022-08-21T04:38:20;14.03;;;9.23;;
1885;SDS011;943;51.568;6.998;2022-08-21T04:40:49;13.00;;;9.73;;
1885;SDS011;943;51.568;6.998;2022-08-21T04:43:19;20.20;;;13.00;;
1885;SDS011;943;51.568;6.998;2022-08-21T04:45:50;22.27;;;13.20;;
1885;SDS011;943;51.568;6.998;2022-08-21T04:48:20;19.03;;;13.27;;
1885;SDS011;943;51.568;6.998;2022-08-21T04:50:52;29.97;;;13.57;;
1885;SDS011;943;51.568;6.998;2022-08-21T04:53:50;20.30;;;14.40;;
1885;SDS011;943;51.568;6.998;2022-08-21T04:56:37;29.23;;;14.90;;
1885;SDS011;943;51.568;6.998;2022-08-21T04:59:17;24.83;;;14.03;;
1885;SDS011;943;51.568;6.998;2022-08-21T05:01:57;29.70;;;16.47;;
1885;SDS011;943;51.568;6.998;2022-08-21T05:04:30;27.13;;;17.03;;
1885;SDS011;943;51.568;6.998;2022-08-21T05:07:04;25.50;;;16.60;;
1885;SDS011;943;51.568;6.998;2022-08-21T05:10:01;20.23;;;13.70;;
1885;SDS011;943;51.568;6.998;2022-08-21T05:12:34;18.17;;;13.00;;
1885;SDS011;943;51.568;6.998;2022-08-21T05:15:03;21.73;;;14.00;;
1885;SDS011;943;51.568;6.998;2022-08-21T05:17:31;14.57;;;12.10;;
1885;SDS011;943;51.568;6.998;2022-08-21T05:19:58;19.10;;;14.63;;
1885;SDS011;943;51.568;6.998;2022-08-21T05:22:26;16.20;;;12.83;;
1885;SDS011;943;51.568;6.998;2022-08-21T05:24:53;16.30;;;13.53;;
1885;SDS011;943;51.568;6.998;2022-08-21T05:27:21;18.47;;;14.27;;
1885;SDS011;943;51.568;6.998;2022-08-21T05:29:53;19.40;;;13.67;;
1885;SDS011;943;51.568;6.998;2022-08-21T05:32:21;20.77;;;14.63;;
1885;SDS011;943;51.568;6.998;2022-08-21T05:34:50;16.13;;;13.30;;
1885;SDS011;943;51.568;6.998;2022-08-21T05:37:18;19.80;;;14.57;;
1885;SDS011;943;51.568;6.998;2022-08-21T05:39:46;16.07;;;14.33;;
1885;SDS011;943;51.568;6.998;2022-08-21T05:42:33;19.90;;;14.63;;
1885;SDS011;943;51.568;6.998;2022-08-21T05:45:01;15.37;;;13.60;;
1885;SDS011;943;51.568;6.998;2022-08-21T05:47:29;17.13;;;14.53;;
1885;SDS011;943;51.568;6.998;2022-08-21T05:49:56;14.47;;;12.77;;
1885;SDS011;943;51.568;6.998;2022-08-21T05:52:24;16.63;;;11.27;;
1885;SDS011;943;51.568;6.998;2022-08-21T05:54:52;18.57;;;14.33;;
1885;SDS011;943;51.568;6.998;2022-08-21T05:57:20;13.70;;;10.50;;
1885;SDS011;943;51.568;6.998;2022-08-21T05:59:49;12.63;;;9.27;;
1885;SDS011;943;51.568;6.998;2022-08-21T06:02:17;16.33;;;8.73;;
1885;SDS011;943;51.568;6.998;2022-08-21T06:04:47;19.90;;;9.83;;
1885;SDS011;943;51.568;6.998;2022-08-21T06:07:15;13.43;;;9.90;;
1885;SDS011;943;51.568;6.998;2022-08-21T06:09:42;9.77;;;8.53;;
1885;SDS011;943;51.568;6.998;2022-08-21T06:12:10;12.33;;;8.00;;
1885;SDS011;943;51.568;6.998;2022-08-21T06:14:40;12.47;;;7.70;;
1885;SDS011;943;51.568;6.998;2022-08-21T06:17:10;11.87;;;9.00;;
1885;SDS011;943;51.568;6.998;2022-08-21T06:19:41;12.97;;;8.00;;
1885;SDS011;943;51.568;6.998;2022-08-21T06:22:11;9.90;;;8.10;;
1885;SDS011;943;51.568;6.998;2022-08-21T06:24:38;13.97;;;8.30;;
1885;SDS011;943;51.568;6.998;2022-08-21T06:27:06;10.27;;;6.97;;
1885;SDS011;943;51.568;6.998;2022-08-21T06:29:35;10.93;;;7.63;;
1885;SDS011;943;51.568;6.998;2022-08-21T06:32:12;12.90;;;8.00;;
1885;SDS011;943;51.568;6.998;2022-08-21T06:34:41;12.33;;;7.83;;
1885;SDS011;943;51.568;6.998;2022-08-21T06:37:09;15.53;;;9.13;;
1885;SDS011;943;51.568;6.998;2022-08-21T06:39:36;10.13;;;7.83;;
1885;SDS011;943;51.568;6.998;2022-08-21T06:42:14;12.10;;;7.77;;
1885;SDS011;943;51.568;6.998;2022-08-21T06:44:43;12.07;;;8.30;;
1885;SDS011;943;51.568;6.998;2022-08-21T06:47:11;13.77;;;7.50;;
1885;SDS011;943;51.568;6.998;2022-08-21T06:49:39;11.20;;;7.93;;
1885;SDS011;943;51.568;6.998;2022-08-21T06:52:11;10.50;;;7.17;;
1885;SDS011;943;51.568;6.998;2022-08-21T06:54:40;11.67;;;8.57;;
1885;SDS011;943;51.568;6.998;2022-08-21T06:57:08;19.33;;;7.97;;
1885;SDS011;943;51.568;6.998;2022-08-21T06:59:35;10.53;;;7.10;;
1885;SDS011;943;51.568;6.998;2022-08-21T07:02:03;10.50;;;7.10;;
1885;SDS011;943;51.568;6.998;2022-08-21T07:04:31;8.73;;;6.50;;
1885;SDS011;943;51.568;6.998;2022-08-21T07:06:58;12.50;;;7.43;;
1885;SDS011;943;51.568;6.998;2022-08-21T07:09:26;9.60;;;7.13;;
1885;SDS011;943;51.568;6.998;2022-08-21T07:11:55;11.23;;;7.23;;
1885;SDS011;943;51.568;6.998;2022-08-21T07:14:25;10.60;;;7.57;;
1885;SDS011;943;51.568;6.998;2022-08-21T07:16:54;9.10;;;6.70;;
1885;SDS011;943;51.568;6.998;2022-08-21T07:19:21;8.33;;;6.23;;
1885;SDS011;943;51.568;6.998;2022-08-21T07:21:49;12.20;;;7.53;;
1885;SDS011;943;51.568;6.998;2022-08-21T07:24:27;8.17;;;6.10;;
1885;SDS011;943;51.568;6.998;2022-08-21T07:26:58;9.90;;;6.67;;
1885;SDS011;943;51.568;6.998;2022-08-21T07:29:26;11.17;;;6.50;;
1885;SDS011;943;51.568;6.998;2022-08-21T07:31:53;8.50;;;4.87;;
1885;SDS011;943;51.568;6.998;2022-08-21T07:34:21;9.73;;;5.87;;
1885;SDS011;943;51.568;6.998;2022-08-21T07:36:48;10.90;;;5.33;;
1885;SDS011;943;51.568;6.998;2022-08-21T07:39:16;7.70;;;5.60;;
1885;SDS011;943;51.568;6.998;2022-08-21T07:41:43;7.27;;;4.57;;
1885;SDS011;943;51.568;6.998;2022-08-21T07:44:11;10.20;;;4.60;;
1885;SDS011;943;51.568;6.998;2022-08-21T07:46:38;9.80;;;5.30;;
1885;SDS011;943;51.568;6.998;2022-08-21T07:49:06;6.87;;;4.50;;
1885;SDS011;943;51.568;6.998;2022-08-21T07:51:33;6.07;;;4.53;;
1885;SDS011;943;51.568;6.998;2022-08-21T07:54:02;8.20;;;4.13;;
1885;SDS011;943;51.568;6.998;2022-08-21T07:56:30;6.47;;;4.22;;
1885;SDS011;943;51.568;6.998;2022-08-21T07:58:58;7.87;;;5.10;;
1885;SDS011;943;51.568;6.998;2022-08-21T08:01:28;7.90;;;4.30;;
1885;SDS011;943;51.568;6.998;2022-08-21T08:03:57;13.00;;;4.53;;
1885;SDS011;943;51.568;6.998;2022-08-21T08:06:24;7.57;;;3.40;;
1885;SDS011;943;51.568;6.998;2022-08-21T08:08:52;6.50;;;3.57;;
1885;SDS011;943;51.568;6.998;2022-08-21T08:11:20;5.37;;;3.27;;
1885;SDS011;943;51.568;6.998;2022-08-21T08:13:50;6.30;;;3.03;;
1885;SDS011;943;51.568;6.998;2022-08-21T08:16:18;9.13;;;3.47;;
1885;SDS011;943;51.568;6.998;2022-08-21T08:18:46;9.40;;;3.67;;
1885;SDS011;943;51.568;6.998;2022-08-21T08:21:14;7.50;;;3.67;;
1885;SDS011;943;51.568;6.998;2022-08-21T08:23:44;7.77;;;4.40;;
1885;SDS011;943;51.568;6.998;2022-08-21T08:26:14;4.27;;;2.80;;
1885;SDS011;943;51.568;6.998;2022-08-21T08:28:42;4.90;;;2.80;;
1885;SDS011;943;51.568;6.998;2022-08-21T08:31:10;10.20;;;3.20;;
1885;SDS011;943;51.568;6.998;2022-08-21T08:33:37;9.10;;;3.70;;
1885;SDS011;943;51.568;6.998;2022-08-21T08:36:05;7.90;;;3.30;;
1885;SDS011;943;51.568;6.998;2022-08-21T08:38:46;5.97;;;2.90;;
1885;SDS011;943;51.568;6.998;2022-08-21T08:41:16;5.90;;;2.67;;
1885;SDS011;943;51.568;6.998;2022-08-21T08:43:59;6.97;;;2.33;;
1885;SDS011;943;51.568;6.998;2022-08-21T08:46:46;10.33;;;2.63;;
1885;SDS011;943;51.568;6.998;2022-08-21T08:49:23;5.00;;;2.00;;
1885;SDS011;943;51.568;6.998;2022-08-21T08:52:20;5.50;;;2.03;;
1885;SDS011;943;51.568;6.998;2022-08-21T08:58:06;5.20;;;1.90;;
1885;SDS011;943;51.568;6.998;2022-08-21T09:00:59;6.20;;;2.30;;
1885;SDS011;943;51.568;6.998;2022-08-21T09:03:33;5.10;;;1.50;;
1885;SDS011;943;51.568;6.998;2022-08-21T09:06:10;3.83;;;1.60;;
1885;SDS011;943;51.568;6.998;2022-08-21T09:16:25;6.00;;;2.03;;
1885;SDS011;943;51.568;6.998;2022-08-21T09:22:57;4.50;;;1.73;;
1885;SDS011;943;51.568;6.998;2022-08-21T09:26:14;5.30;;;1.70;;
1885;SDS011;943;51.568;6.998;2022-08-21T09:28:58;5.80;;;1.90;;
1885;SDS011;943;51.568;6.998;2022-08-21T09:31:30;4.97;;;1.60;;
1885;SDS011;943;51.568;6.998;2022-08-21T09:34:09;4.83;;;1.60;;
1885;SDS011;943;51.568;6.998;2022-08-21T09:36:44;5.00;;;1.53;;
1885;SDS011;943;51.568;6.998;2022-08-21T09:39:28;4.10;;;1.53;;
1885;SDS011;943;51.568;6.998;2022-08-21T09:42:12;9.20;;;2.50;;
1885;SDS011;943;51.568;6.998;2022-08-21T09:45:16;5.30;;;1.83;;
1885;SDS011;943;51.568;6.998;2022-08-21T09:47:45;5.23;;;1.70;;
1885;SDS011;943;51.568;6.998;2022-08-21T09:50:14;3.60;;;1.40;;
1885;SDS011;943;51.568;6.998;2022-08-21T09:52:56;4.37;;;1.47;;
1885;SDS011;943;51.568;6.998;2022-08-21T09:55:32;3.03;;;1.57;;
1885;SDS011;943;51.568;6.998;2022-08-21T09:58:35;2.77;;;1.30;;
1885;SDS011;943;51.568;6.998;2022-08-21T10:01:12;3.67;;;1.77;;
1885;SDS011;943;51.568;6.998;2022-08-21T10:03:48;4.53;;;1.60;;
1885;SDS011;943;51.568;6.998;2022-08-21T10:06:30;4.07;;;1.50;;
1885;SDS011;943;51.568;6.998;2022-08-21T10:09:13;4.10;;;1.73;;
1885;SDS011;943;51.568;6.998;2022-08-21T10:11:58;6.23;;;2.30;;
1885;SDS011;943;51.568;6.998;2022-08-21T10:21:28;5.93;;;1.60;;
1885;SDS011;943;51.568;6.998;2022-08-21T10:30:56;4.63;;;1.60;;
1885;SDS011;943;51.568;6.998;2022-08-21T10:34:55;4.43;;;1.93;;
1885;SDS011;943;51.568;6.998;2022-08-21T10:41:26;6.13;;;1.83;;
1885;SDS011;943;51.568;6.998;2022-08-21T10:50:15;5.50;;;1.43;;
1885;SDS011;943;51.568;6.998;2022-08-21T10:56:47;2.90;;;1.60;;
1885;SDS011;943;51.568;6.998;2022-08-21T10:59:34;5.33;;;1.53;;
1885;SDS011;943;51.568;6.998;2022-08-21T11:02:57;4.37;;;1.50;;
1885;SDS011;943;51.568;6.998;2022-08-21T11:05:59;4.70;;;1.40;;
1885;SDS011;943;51.568;6.998;2022-08-21T11:08:45;3.30;;;1.40;;
1885;SDS011;943;51.568;6.998;2022-08-21T11:14:33;6.23;;;1.60;;
1885;SDS011;943;51.568;6.998;2022-08-21T11:17:34;5.80;;;1.83;;
1885;SDS011;943;51.568;6.998;2022-08-21T11:30:51;4.03;;;1.80;;
1885;SDS011;943;51.568;6.998;2022-08-21T11:37:26;4.60;;;1.93;;
1885;SDS011;943;51.568;6.998;2022-08-21T11:43:46;4.20;;;1.97;;
1885;SDS011;943;51.568;6.998;2022-08-21T11:53:09;6.07;;;1.70;;
1885;SDS011;943;51.568;6.998;2022-08-21T11:56:07;4.13;;;1.70;;
1885;SDS011;943;51.568;6.998;2022-08-21T11:59:00;3.90;;;1.50;;
1885;SDS011;943;51.568;6.998;2022-08-21T12:01:43;5.77;;;1.97;;
1885;SDS011;943;51.568;6.998;2022-08-21T12:04:20;9.43;;;2.20;;
1885;SDS011;943;51.568;6.998;2022-08-21T12:07:10;5.10;;;1.40;;
1885;SDS011;943;51.568;6.998;2022-08-21T12:10:08;3.27;;;1.53;;
1885;SDS011;943;51.568;6.998;2022-08-21T12:12:47;3.40;;;1.30;;
1885;SDS011;943;51.568;6.998;2022-08-21T12:17:55;3.90;;;1.80;;
1885;SDS011;943;51.568;6.998;2022-08-21T12:20:59;4.10;;;2.10;;
1885;SDS011;943;51.568;6.998;2022-08-21T12:24:02;6.60;;;2.83;;
1885;SDS011;943;51.568;6.998;2022-08-21T12:26:49;5.33;;;2.03;;
1885;SDS011;943;51.568;6.998;2022-08-21T12:29:29;6.83;;;2.10;;
1885;SDS011;943;51.568;6.998;2022-08-21T12:34:38;2.80;;;1.47;;
1885;SDS011;943;51.568;6.998;2022-08-21T12:38:26;4.93;;;1.77;;
1885;SDS011;943;51.568;6.998;2022-08-21T12:46:22;2.77;;;1.50;;
1885;SDS011;943;51.568;6.998;2022-08-21T12:49:13;5.63;;;1.60;;
1885;SDS011;943;51.568;6.998;2022-08-21T12:52:05;4.87;;;1.67;;
1885;SDS011;943;51.568;6.998;2022-08-21T12:55:04;3.47;;;1.40;;
1885;SDS011;943;51.568;6.998;2022-08-21T12:57:42;4.00;;;1.80;;
1885;SDS011;943;51.568;6.998;2022-08-21T13:00:10;5.67;;;1.70;;
1885;SDS011;943;51.568;6.998;2022-08-21T13:02:47;3.57;;;1.63;;
1885;SDS011;943;51.568;6.998;2022-08-21T13:05:28;4.13;;;1.30;;
1885;SDS011;943;51.568;6.998;2022-08-21T13:08:06;3.40;;;1.57;;
1885;SDS011;943;51.568;6.998;2022-08-21T13:10:40;3.57;;;1.30;;
1885;SDS011;943;51.568;6.998;2022-08-21T13:13:12;3.90;;;1.60;;
1885;SDS011;943;51.568;6.998;2022-08-21T13:16:02;4.03;;;1.47;;
1885;SDS011;943;51.568;6.998;2022-08-21T13:18:40;4.80;;;1.57;;
1885;SDS011;943;51.568;6.998;2022-08-21T13:21:33;4.40;;;1.77;;
1885;SDS011;943;51.568;6.998;2022-08-21T13:27:19;4.43;;;1.50;;
1885;SDS011;943;51.568;6.998;2022-08-21T13:30:08;6.83;;;1.23;;
1885;SDS011;943;51.568;6.998;2022-08-21T13:32:52;5.37;;;1.73;;
1885;SDS011;943;51.568;6.998;2022-08-21T13:38:35;3.43;;;1.67;;
1885;SDS011;943;51.568;6.998;2022-08-21T13:41:10;3.60;;;1.70;;
1885;SDS011;943;51.568;6.998;2022-08-21T13:43:58;10.40;;;4.50;;
1885;SDS011;943;51.568;6.998;2022-08-21T13:46:46;5.43;;;1.73;;
1885;SDS011;943;51.568;6.998;2022-08-21T13:49:17;4.30;;;1.43;;
1885;SDS011;943;51.568;6.998;2022-08-21T13:51:56;5.53;;;1.60;;
1885;SDS011;943;51.568;6.998;2022-08-21T13:54:26;5.80;;;2.00;;
1885;SDS011;943;51.568;6.998;2022-08-21T13:57:19;3.57;;;1.60;;
1885;SDS011;943;51.568;6.998;2022-08-21T14:00:11;5.13;;;1.70;;
1885;SDS011;943;51.568;6.998;2022-08-21T14:03:00;4.83;;;1.60;;
1885;SDS011;943;51.568;6.998;2022-08-21T14:05:37;6.27;;;1.90;;
1885;SDS011;943;51.568;6.998;2022-08-21T14:08:18;3.73;;;1.50;;
1885;SDS011;943;51.568;6.998;2022-08-21T14:11:04;7.30;;;1.80;;
1885;SDS011;943;51.568;6.998;2022-08-21T14:13:42;3.77;;;2.20;;
1885;SDS011;943;51.568;6.998;2022-08-21T14:16:46;4.30;;;1.60;;
1885;SDS011;943;51.568;6.998;2022-08-21T14:19:47;3.10;;;1.47;;
1885;SDS011;943;51.568;6.998;2022-08-21T14:22:21;2.80;;;1.60;;
1885;SDS011;943;51.568;6.998;2022-08-21T14:25:14;6.27;;;1.67;;
1885;SDS011;943;51.568;6.998;2022-08-21T14:28:19;3.03;;;1.40;;
1885;SDS011;943;51.568;6.998;2022-08-21T14:31:10;4.47;;;1.47;;
1885;SDS011;943;51.568;6.998;2022-08-21T14:33:48;4.23;;;1.30;;
1885;SDS011;943;51.568;6.998;2022-08-21T14:36:15;4.87;;;1.60;;
1885;SDS011;943;51.568;6.998;2022-08-21T14:38:43;6.60;;;1.67;;
1885;SDS011;943;51.568;6.998;2022-08-21T14:41:15;4.30;;;1.80;;
1885;SDS011;943;51.568;6.998;2022-08-21T14:43:50;3.10;;;1.33;;
1885;SDS011;943;51.568;6.998;2022-08-21T14:46:35;8.27;;;1.70;;
1885;SDS011;943;51.568;6.998;2022-08-21T14:49:21;3.43;;;1.67;;
1885;SDS011;943;51.568;6.998;2022-08-21T14:51:55;5.73;;;2.00;;
1885;SDS011;943;51.568;6.998;2022-08-21T14:54:25;3.10;;;1.33;;
1885;SDS011;943;51.568;6.998;2022-08-21T14:57:07;3.20;;;1.40;;
1885;SDS011;943;51.568;6.998;2022-08-21T14:59:41;3.60;;;1.30;;
1885;SDS011;943;51.568;6.998;2022-08-21T15:02:09;3.83;;;1.50;;
1885;SDS011;943;51.568;6.998;2022-08-21T15:04:37;3.00;;;1.30;;
1885;SDS011;943;51.568;6.998;2022-08-21T15:07:05;5.50;;;1.60;;
1885;SDS011;943;51.568;6.998;2022-08-21T15:09:32;3.37;;;1.43;;
1885;SDS011;943;51.568;6.998;2022-08-21T15:12:01;3.87;;;1.20;;
1885;SDS011;943;51.568;6.998;2022-08-21T15:14:32;2.93;;;1.43;;
1885;SDS011;943;51.568;6.998;2022-08-21T15:17:07;3.73;;;1.43;;
1885;SDS011;943;51.568;6.998;2022-08-21T15:19:37;4.63;;;1.67;;
1885;SDS011;943;51.568;6.998;2022-08-21T15:22:05;3.30;;;1.40;;
1885;SDS011;943;51.568;6.998;2022-08-21T15:24:44;7.67;;;1.87;;
1885;SDS011;943;51.568;6.998;2022-08-21T15:27:12;6.33;;;1.63;;
1885;SDS011;943;51.568;6.998;2022-08-21T15:29:43;6.03;;;1.50;;
1885;SDS011;943;51.568;6.998;2022-08-21T15:35:05;2.83;;;1.53;;
1885;SDS011;943;51.568;6.998;2022-08-21T15:37:34;2.60;;;1.10;;
1885;SDS011;943;51.568;6.998;2022-08-21T15:40:02;3.67;;;1.17;;
1885;SDS011;943;51.568;6.998;2022-08-21T15:42:33;4.00;;;1.67;;
1885;SDS011;943;51.568;6.998;2022-08-21T15:45:02;4.20;;;1.60;;
1885;SDS011;943;51.568;6.998;2022-08-21T15:47:33;3.13;;;1.53;;
1885;SDS011;943;51.568;6.998;2022-08-21T15:50:06;5.60;;;1.60;;
1885;SDS011;943;51.568;6.998;2022-08-21T15:52:37;5.87;;;1.40;;
1885;SDS011;943;51.568;6.998;2022-08-21T15:55:05;5.30;;;1.53;;
1885;SDS011;943;51.568;6.998;2022-08-21T15:57:36;4.40;;;1.83;;
1885;SDS011;943;51.568;6.998;2022-08-21T16:00:24;8.63;;;1.63;;
1885;SDS011;943;51.568;6.998;2022-08-21T16:02:55;10.73;;;6.83;;
1885;SDS011;943;51.568;6.998;2022-08-21T16:05:26;6.43;;;1.70;;
1885;SDS011;943;51.568;6.998;2022-08-21T16:07:54;6.33;;;1.70;;
1885;SDS011;943;51.568;6.998;2022-08-21T16:10:22;3.50;;;1.63;;
1885;SDS011;943;51.568;6.998;2022-08-21T16:13:00;6.30;;;1.30;;
1885;SDS011;943;51.568;6.998;2022-08-21T16:15:48;12.70;;;2.13;;
1885;SDS011;943;51.568;6.998;2022-08-21T16:18:17;7.77;;;1.63;;
1885;SDS011;943;51.568;6.998;2022-08-21T16:20:48;4.10;;;1.73;;
1885;SDS011;943;51.568;6.998;2022-08-21T16:23:16;10.37;;;3.07;;
1885;SDS011;943;51.568;6.998;2022-08-21T16:25:45;8.60;;;3.80;;
1885;SDS011;943;51.568;6.998;2022-08-21T16:28:15;19.97;;;14.10;;
1885;SDS011;943;51.568;6.998;2022-08-21T16:30:48;8.47;;;6.20;;
1885;SDS011;943;51.568;6.998;2022-08-21T16:33:39;3.53;;;1.63;;
1885;SDS011;943;51.568;6.998;2022-08-21T16:36:18;14.10;;;9.60;;
1885;SDS011;943;51.568;6.998;2022-08-21T16:38:47;11.50;;;7.40;;
1885;SDS011;943;51.568;6.998;2022-08-21T16:41:17;17.20;;;10.43;;
1885;SDS011;943;51.568;6.998;2022-08-21T16:43:48;7.20;;;4.40;;
1885;SDS011;943;51.568;6.998;2022-08-21T16:46:18;20.10;;;11.37;;
1885;SDS011;943;51.568;6.998;2022-08-21T16:48:47;4.60;;;1.60;;
1885;SDS011;943;51.568;6.998;2022-08-21T16:51:16;4.60;;;1.57;;
1885;SDS011;943;51.568;6.998;2022-08-21T16:53:44;4.80;;;1.80;;
1885;SDS011;943;51.568;6.998;2022-08-21T16:56:12;6.83;;;1.50;;
1885;SDS011;943;51.568;6.998;2022-08-21T16:58:44;7.60;;;1.50;;
1885;SDS011;943;51.568;6.998;2022-08-21T17:01:23;4.10;;;1.40;;
1885;SDS011;943;51.568;6.998;2022-08-21T17:03:58;5.53;;;1.83;;
1885;SDS011;943;51.568;6.998;2022-08-21T17:06:26;7.30;;;1.77;;
1885;SDS011;943;51.568;6.998;2022-08-21T17:08:56;4.43;;;1.40;;
1885;SDS011;943;51.568;6.998;2022-08-21T17:14:19;3.57;;;1.20;;
1885;SDS011;943;51.568;6.998;2022-08-21T17:16:50;4.70;;;1.50;;
1885;SDS011;943;51.568;6.998;2022-08-21T17:19:22;3.10;;;1.23;;
1885;SDS011;943;51.568;6.998;2022-08-21T17:21:49;5.00;;;1.37;;
1885;SDS011;943;51.568;6.998;2022-08-21T17:24:17;5.97;;;2.20;;
1885;SDS011;943;51.568;6.998;2022-08-21T17:26:45;4.60;;;1.40;;
1885;SDS011;943;51.568;6.998;2022-08-21T17:29:15;4.70;;;1.57;;
1885;SDS011;943;51.568;6.998;2022-08-21T17:31:51;4.17;;;1.20;;
1885;SDS011;943;51.568;6.998;2022-08-21T17:34:19;5.33;;;2.23;;
1885;SDS011;943;51.568;6.998;2022-08-21T17:36:54;6.30;;;1.60;;
1885;SDS011;943;51.568;6.998;2022-08-21T17:39:21;6.93;;;1.87;;
1885;SDS011;943;51.568;6.998;2022-08-21T17:41:52;5.37;;;1.80;;